Record high temperature 52.3°C Record low temperature -14.8°C Record high gust 66.0 kts Record high average 44.0 kts Record daily rain 221.2 mm Record low windchill -23.5°C Record high barometer 1099.9 hPa Record low barometer 815.2 hPa
Daily high pressure 1019.4 hPa Daily low pressure 1015.8 hPa Daily low windchill 21.1°C Daily high heat index 26.1°C Daily high gust speed 23.0 kts NNE Daily high average speed 23.0 kts NNE
Potts Point Sydney
LAST READING AT TIME: 07:30 DATE: 24 February 2017, time of next update: 07:40
Current Weatherovercast/Clear Current Temperature 22.0°C (71.6°F) (Heat Index 22.0°C ), Apparent temp 21.9°C , Apparent temp solar 21.9°C
Maximum Temperature (since 9am)26.1°C at: 11:11 Minimum Temperature (since 9am)21.1°C at: 04:03
Average windspeed (ten minute)8.1 kts (15.0 kmh) Wind Direction (ten minute)S (178°)
Heat Index 22.0°C Maximum Gust (last hour)9.0 kts (16.7 kmh) at: 06:51
Maximum Gust (since 9am)23.0 kts (42.6 kmh) at: 17:41 Maximum 1 minute average (since 9am)23.0 kts (42.6 kmh) at: 17:41
Rainfall (last hour)0.0 mm Rainfall (since 9am)0.0 mm (0.00 in.)---
Rainfall This month 177.1 mm (6.97 in.) Rainfall To date this year 250.2 mm (9.85 in.)
Maximum rain per minute (last hour)0.0 mm/min Maximum rain per hour (last 6 hours)0.0 mm/hour
Yesterdays rainfall 0.0 mm DewPoint 19.0°C (Wet Bulb :20.1°C )
Humidity 83 %, Humidex 28.8°C Barometer corrected to msl1019.3 hPa
Pressure change +1.1 hPa (last hour) Trend (last hour)RISING SLOWLY
Pressure change (last 12 hours)+2.5 hPa Pressure change (last 6 hours)+2.3 hPa
Current Indoor Temp. 27.2°C
Current Indoor Hum. 64%
Current solar 0 W/mē Current UV0.0
Maximum solar (since 9am) 996 W/mē Minimum solar (since 9am)1000 W/mē
Current 00:00 hours of sunshine today, current sky: overcast
Sunshine hours for the year: 214:48 hrs Sunshine hours for the month: 97:26 hrs
Current evapotranspiration rate 0.9 mm per day. Yesterday's reading 8.0

This page is updated from recent data collected by a WS2310 weather station Use the Reload or Refresh facility on your browser to retrieve the latest data.


Animated web cam image


Weather report/warning/Metars

Sydney Airport, Australia (YSSY) 33-57S 151-11E 3M
Feb 23, 2017 - 03:00 PM EST / 2017.02.23 2000 UTC
Wind: from the S (170 degrees) at 9 MPH (8 KT):0
Visibility: greater than 7 mile(s):0
Sky conditions: mostly cloudy
Temperature: 69 F (21 C)
Dew Point: 66 F (19 C)
Relative Humidity: 88%
Pressure (altimeter): 30.09 in. Hg (1019 hPa)
ob: YSSY 232000Z 17008KT 9999 BKN020 21/19 Q1019 NOSIG
cycle: 20
Auckland Airport, New Zealand (NZAA) 37-01S 174-48E 6M
Feb 23, 2017 - 03:00 PM EST / 2017.02.23 2000 UTC
Wind: from the ESE (110 degrees) at 5 MPH (4 KT):0
Visibility: greater than 7 mile(s):0
Sky conditions: mostly cloudy
Temperature: 68 F (20 C)
Dew Point: 64 F (18 C)
Relative Humidity: 88%
Pressure (altimeter): 30.12 in. Hg (1020 hPa)
ob: NZAA 232000Z AUTO 11004KT 9999 BKN080/// 20/18 Q1020 NOSIG
cycle: 20